Time;durP1;ratioP1;P1;durP2;ratioP2;P2;SDS_P1;SDS_P2;PMS_P1;PMS_P2;Temp;Humidity;BMP_temperature;BMP_pressure;BME280_temperature;BME280_humidity;BME280_pressure;Samples;Min_cycle;Max_cycle;Signal;HPM_P1;HPM_P2
2021/04/16 00:00:52;;;;;;;7.40;6.70;;;-2.10;1.40;;;-1.41;83.13;95953.78;637536;216;43052;-72
2021/04/16 00:03:21;;;;;;;8.00;7.30;;;-2.10;1.40;;;-1.44;83.06;95950.08;631162;224;31903;-72
2021/04/16 00:05:50;;;;;;;8.57;7.87;;;-2.10;1.40;;;-1.43;86.65;95947.71;636285;224;29872;-73
2021/04/16 00:08:20;;;;;;;6.70;6.17;;;-2.10;1.40;;;-1.37;86.63;95952.50;656699;215;26599;-73
2021/04/16 00:10:50;;;;;;;6.77;6.13;;;-2.10;1.40;;;-1.38;86.69;95948.84;656088;215;24616;-73
2021/04/16 00:13:19;;;;;;;6.93;6.30;;;-2.20;1.40;;;-1.43;86.61;95940.40;650203;215;31513;-73
2021/04/16 00:15:48;;;;;;;9.97;7.50;;;-2.20;1.40;;;-1.54;88.79;95943.83;654773;215;23407;-73
2021/04/16 00:18:17;;;;;;;6.90;6.30;;;-2.30;1.40;;;-1.58;90.36;95943.77;655963;215;24466;-73
2021/04/16 00:20:46;;;;;;;8.00;7.20;;;-2.30;1.40;;;-1.64;88.48;95944.50;649615;215;31778;-73
2021/04/16 00:23:15;;;;;;;7.73;7.00;;;-2.40;1.40;;;-1.59;89.28;95936.55;656651;215;23490;-73
2021/04/16 00:25:44;;;;;;;8.60;7.30;;;-2.30;1.40;;;-1.40;86.18;95928.41;651289;215;31658;-73
2021/04/16 00:28:14;;;;;;;7.77;7.07;;;-2.30;1.40;;;-1.48;85.98;95927.41;655600;215;23491;-73
2021/04/16 00:30:43;;;;;;;7.50;6.80;;;-2.30;1.40;;;-1.43;87.34;95928.09;648608;215;31760;-73
2021/04/16 00:35:51;;;;;;;7.50;6.80;;;-2.40;1.40;;;-1.76;87.52;95930.86;648416;212;32198;-73
2021/04/16 00:38:20;;;;;;;8.47;7.67;;;-2.50;1.40;;;-1.84;86.98;95930.07;636558;220;42467;-72
2021/04/16 00:40:50;;;;;;;9.27;8.37;;;-2.50;1.40;;;-1.84;88.58;95926.28;651328;218;24494;-73
2021/04/16 00:43:19;;;;;;;7.90;7.13;;;-2.70;1.40;;;-1.94;88.63;95921.55;655465;217;25092;-73
2021/04/16 00:45:48;;;;;;;8.55;7.75;;;-2.80;1.40;;;-2.05;86.44;95920.05;662254;211;31453;-73
2021/04/16 00:48:24;;;;;;;8.43;7.70;;;-2.70;1.40;;;-2.14;88.22;95922.00;666590;211;23411;-73
2021/04/16 00:50:53;;;;;;;8.13;7.53;;;-2.70;1.40;;;-2.16;89.01;95921.76;669751;211;24589;-73
2021/04/16 00:53:22;;;;;;;8.70;7.72;;;-2.80;1.40;;;-2.11;89.93;95922.17;641487;220;31691;-73
2021/04/16 00:55:51;;;;;;;7.97;7.27;;;-2.90;1.40;;;-2.21;89.69;95917.11;669341;211;26817;-73
2021/04/16 00:58:20;;;;;;;8.30;7.50;;;-2.90;1.40;;;-2.17;89.88;95916.09;664142;211;31594;-72
2021/04/16 01:00:49;;;;;;;8.20;7.40;;;-3.00;1.40;;;-2.17;90.56;95916.52;659858;211;23497;-73
2021/04/16 01:03:18;;;;;;;8.23;7.43;;;-3.00;1.40;;;-2.19;89.29;95913.72;649916;215;31549;-73
2021/04/16 01:05:47;;;;;;;9.00;7.97;;;-3.00;1.40;;;-2.20;89.75;95908.88;654451;215;23972;-73
2021/04/16 01:10:56;;;;;;;9.18;8.27;;;-2.90;1.40;;;-2.10;87.37;95909.58;645825;212;31590;-72
2021/04/16 01:13:26;;;;;;;8.93;7.80;;;-2.90;1.40;;;-2.19;88.14;95909.06;640615;221;23474;-73
2021/04/16 01:15:58;;;;;;;9.82;7.57;;;-2.90;1.40;;;-2.15;87.96;95912.48;632127;221;31930;-73
2021/04/16 01:18:24;;;;;;;8.32;7.62;;;-3.00;1.40;;;-2.15;88.10;95907.13;619098;224;32044;-70
2021/04/16 01:20:53;;;;;;;8.20;7.57;;;-2.90;1.40;;;-2.24;89.38;95906.47;633637;224;23547;-71
2021/04/16 01:23:44;;;;;;;9.40;8.60;;;-2.90;1.40;;;-2.27;89.63;95912.70;624098;224;31893;-70
2021/04/16 01:26:26;;;;;;;7.72;7.03;;;-3.10;1.40;;;-2.21;88.88;95905.64;646011;212;31582;-72
2021/04/16 01:28:55;;;;;;;7.97;6.87;;;-3.10;1.40;;;-2.30;90.07;95907.50;641866;221;23508;-72
2021/04/16 01:31:24;;;;;;;8.23;7.43;;;-3.10;1.40;;;-2.22;89.94;95904.19;633915;220;31832;-72
2021/04/16 01:35:51;;;;;;;9.60;7.35;;;-3.10;1.40;;;-2.38;89.92;95900.48;646457;216;31581;-73
2021/04/16 01:38:20;;;;;;;8.37;7.77;;;-3.30;1.40;;;-2.40;90.67;95894.67;640943;221;23491;-72
2021/04/16 01:40:49;;;;;;;9.25;8.35;;;-3.30;1.40;;;-2.31;89.78;95895.97;634506;221;32887;-72
2021/04/16 01:43:21;;;;;;;7.87;7.13;;;-3.30;1.40;;;-2.41;90.38;95889.84;639568;221;23517;-72
2021/04/16 01:45:50;;;;;;;9.10;8.20;;;-3.30;1.40;;;-2.40;91.11;95892.75;639937;219;31825;-72
2021/04/16 01:48:19;;;;;;;9.50;8.60;;;-3.20;1.40;;;-2.30;90.88;95890.17;648756;215;31629;-73
2021/04/16 01:50:48;;;;;;;9.70;8.80;;;-3.30;1.40;;;-2.46;90.25;95892.89;662543;211;42071;-72
2021/04/16 01:53:17;;;;;;;8.40;7.60;;;-3.30;1.40;;;-2.62;92.37;95887.08;669518;211;24418;-72
2021/04/16 01:55:46;;;;;;;9.90;8.90;;;-3.50;1.40;;;-2.66;92.08;95887.02;663039;211;31424;-73
2021/04/16 01:58:15;;;;;;;8.67;7.87;;;-3.30;1.40;;;-2.61;95.14;95887.23;652804;215;29803;-71
2021/04/16 02:00:44;;;;;;;10.00;7.82;;;-3.40;1.40;;;-2.53;94.41;95886.77;639041;220;31825;-73
2021/04/16 02:03:14;;;;;;;8.60;7.80;;;-3.40;1.40;;;-2.46;94.96;95890.38;643879;220;23480;-73
2021/04/16 02:05:43;;;;;;;9.20;8.30;;;-3.30;1.40;;;-2.66;94.72;95892.96;648672;215;31574;-72
2021/04/16 02:08:12;;;;;;;9.32;8.43;;;-3.30;1.40;;;-2.69;94.88;95893.30;649748;216;31569;-72
2021/04/16 02:10:43;;;;;;;9.80;9.00;;;-3.40;1.40;;;-2.71;94.73;95890.64;668571;211;24509;-73
2021/04/16 02:13:10;;;;;;;8.75;7.90;;;-3.60;1.40;;;-2.78;92.89;95891.60;662886;211;31466;-73
2021/04/16 02:15:39;;;;;;;8.97;8.07;;;-3.60;1.40;;;-2.84;93.60;95892.78;666922;211;23435;-72
2021/04/16 02:18:08;;;;;;;9.30;8.40;;;-3.50;1.40;;;-2.81;93.47;95895.19;651531;216;31627;-73
2021/04/16 02:20:37;;;;;;;9.90;8.97;;;-3.50;1.40;;;-2.84;94.54;95890.08;656882;215;27178;-73
2021/04/16 02:23:06;;;;;;;9.60;8.70;;;-3.60;1.40;;;-2.83;95.23;95888.27;652471;215;42779;-72
2021/04/16 02:25:35;;;;;;;8.63;7.73;;;-3.60;1.40;;;-2.78;96.27;95895.93;657279;215;23445;-71
2021/04/16 02:28:05;;;;;;;10.40;7.95;;;-3.60;1.40;;;-2.80;94.59;95884.77;643620;215;31793;-72
2021/04/16 02:30:34;;;;;;;8.17;7.37;;;-3.60;1.40;;;-2.86;95.31;95883.09;631535;224;23507;-73
2021/04/16 02:35:51;;;;;;;9.48;8.57;;;-3.80;1.40;;;-2.90;94.78;95879.92;645311;212;32179;-74
2021/04/16 02:38:20;;;;;;;9.03;8.20;;;-3.80;1.40;;;-2.93;94.79;95880.42;641856;221;23479;-73
2021/04/16 02:40:49;;;;;;;9.63;8.68;;;-3.80;1.40;;;-3.00;93.43;95869.95;635500;220;31877;-73
2021/04/16 02:43:19;;;;;;;8.60;7.60;;;-3.70;1.40;;;-2.96;95.49;95869.97;641099;220;23507;-74
2021/04/16 02:45:48;;;;;;;9.65;8.65;;;-3.90;1.40;;;-2.97;94.88;95869.05;634951;219;32624;-72
2021/04/16 02:48:17;;;;;;;8.70;7.80;;;-3.90;1.40;;;-3.00;95.41;95871.99;653338;216;26830;-73
2021/04/16 02:50:46;;;;;;;9.30;8.40;;;-3.90;1.40;;;-2.93;94.96;95868.87;664302;211;32381;-72
2021/04/16 02:53:15;;;;;;;9.60;8.70;;;-3.80;1.40;;;-3.03;94.60;95872.45;654116;216;23419;-72
2021/04/16 02:55:44;;;;;;;8.80;8.00;;;-3.70;1.40;;;-3.06;94.67;95870.08;649623;216;31618;-73
2021/04/16 02:58:13;;;;;;;8.07;7.33;;;-3.70;1.40;;;-3.14;95.81;95864.74;642815;220;23504;-73
2021/04/16 03:00:42;;;;;;;8.77;7.90;;;-3.80;1.40;;;-3.12;96.65;95868.23;635854;220;32458;-72
2021/04/16 03:03:11;;;;;;;8.43;7.60;;;-3.90;1.40;;;-3.19;96.92;95869.28;642750;220;23461;-72
2021/04/16 03:05:41;;;;;;;9.10;8.30;;;-4.00;1.40;;;-3.20;96.18;95865.50;662982;211;31637;-72
2021/04/16 03:08:10;;;;;;;9.47;8.03;;;-3.90;1.40;;;-3.26;96.39;95866.58;669154;211;23383;-73
2021/04/16 03:10:39;;;;;;;10.27;9.10;;;-3.80;1.40;;;-3.31;95.53;95863.20;661851;211;32072;-72
2021/04/16 03:13:08;;;;;;;9.13;8.30;;;-3.90;1.40;;;-3.31;95.69;95862.69;663127;211;31447;-73
2021/04/16 03:15:37;;;;;;;8.17;7.37;;;-3.90;1.40;;;-3.36;96.35;95859.72;652546;216;23513;-73
2021/04/16 03:18:06;;;;;;;9.40;8.60;;;-4.00;1.40;;;-3.31;95.86;95860.21;649513;216;31548;-73
2021/04/16 03:20:35;;;;;;;8.00;7.30;;;-4.00;1.40;;;-3.39;96.09;95858.38;653525;215;26653;-73
2021/04/16 03:23:04;;;;;;;9.50;8.60;;;-4.00;1.40;;;-3.37;96.56;95859.09;649288;215;31545;-73
2021/04/16 03:25:33;;;;;;;8.00;7.30;;;-3.90;1.40;;;-3.36;97.02;95861.83;628613;225;23563;-73
2021/04/16 03:28:02;;;;;;;9.27;8.38;;;-3.90;1.40;;;-3.15;96.72;95860.45;623185;225;32269;-72
2021/04/16 03:30:31;;;;;;;9.70;8.80;;;-3.90;1.40;;;-3.28;95.12;95858.55;649514;215;31625;-72
2021/04/16 03:33:01;;;;;;;8.45;7.70;;;-4.00;1.40;;;-3.13;95.76;95857.93;648807;216;31704;-73
2021/04/16 03:35:53;;;;;;;9.02;8.13;;;-4.00;1.40;;;-3.19;96.12;95856.15;645670;212;31574;-72
2021/04/16 03:38:22;;;;;;;9.33;8.60;;;-3.90;1.40;;;-3.13;95.16;95856.59;640604;220;24516;-73
2021/04/16 03:40:51;;;;;;;8.68;7.87;;;-3.90;1.40;;;-3.14;94.67;95855.04;636480;221;32304;-73
2021/04/16 03:43:20;;;;;;;8.77;7.97;;;-3.90;1.40;;;-3.22;94.49;95856.39;635898;221;42427;-73
2021/04/16 03:45:49;;;;;;;10.20;7.30;;;-4.00;1.40;;;-3.30;94.85;95853.88;640213;221;28815;-73
2021/04/16 03:48:18;;;;;;;9.30;7.90;;;-4.10;1.40;;;-3.43;94.38;95859.44;636046;221;31702;-73
2021/04/16 03:50:47;;;;;;;10.05;9.07;;;-4.10;1.40;;;-3.41;95.03;95859.48;632947;221;31969;-73
2021/04/16 03:53:16;;;;;;;9.47;8.50;;;-4.20;1.40;;;-3.44;96.08;95865.45;640658;221;25916;-73
2021/04/16 03:55:45;;;;;;;8.82;7.95;;;-4.20;1.40;;;-3.45;96.13;95865.16;635376;220;31832;-73
2021/04/16 03:58:15;;;;;;;9.68;8.68;;;-4.20;1.40;;;-3.47;96.45;95864.95;636433;220;31713;-73
2021/04/16 04:00:44;;;;;;;8.73;8.03;;;-4.20;1.40;;;-3.61;96.42;95867.95;640301;220;23576;-72
2021/04/16 04:03:13;;;;;;;9.23;8.43;;;-4.30;1.40;;;-3.57;95.96;95864.09;661764;213;31543;-72
2021/04/16 04:05:42;;;;;;;9.10;8.30;;;-4.30;1.40;;;-3.60;95.72;95866.87;662027;214;31412;-72
2021/04/16 04:08:11;;;;;;;9.20;8.27;;;-4.40;1.40;;;-3.66;95.96;95869.23;666857;213;25766;-71
2021/04/16 04:13:14;;;;;;;9.45;8.45;;;-4.50;1.40;;;-3.63;96.31;95870.63;645983;212;31682;-72
2021/04/16 04:15:43;;;;;;;9.70;8.80;;;-4.60;1.40;;;-3.69;96.61;95870.93;642077;221;23506;-73
2021/04/16 04:18:12;;;;;;;8.90;8.00;;;-4.50;1.40;;;-3.67;96.79;95872.86;636162;220;31763;-72
2021/04/16 04:20:41;;;;;;;10.90;8.20;;;-4.50;1.40;;;-3.77;97.13;95875.63;641449;220;23470;-73
2021/04/16 04:23:10;;;;;;;9.30;8.40;;;-4.50;1.40;;;-3.79;96.27;95876.80;648978;215;31731;-73
2021/04/16 04:25:39;;;;;;;9.80;7.60;;;-4.40;1.40;;;-3.69;96.57;95876.11;668037;211;23407;-73
2021/04/16 04:28:08;;;;;;;10.30;9.20;;;-4.40;1.40;;;-3.58;94.64;95876.81;663401;211;31528;-73
2021/04/16 04:30:38;;;;;;;10.17;8.23;;;-4.30;1.40;;;-3.67;95.87;95871.97;669470;211;23443;-72
2021/04/16 04:35:57;;;;;;;10.00;8.82;;;-4.50;1.40;;;-3.69;95.48;95876.08;646133;216;32089;-73
2021/04/16 04:38:26;;;;;;;9.40;8.50;;;-4.30;1.40;;;-3.71;96.18;95875.20;640936;220;23490;-73
2021/04/16 04:40:55;;;;;;;9.57;8.60;;;-4.30;1.40;;;-3.49;98.30;95877.52;635032;220;31961;-73
2021/04/16 04:43:24;;;;;;;10.48;9.48;;;-4.10;1.40;;;-3.31;98.89;95877.58;635289;221;31746;-75
2021/04/16 04:45:53;;;;;;;11.40;10.30;;;-3.90;1.40;;;-3.25;98.13;95885.25;634739;221;31853;-71
2021/04/16 04:48:23;;;;;;;9.03;8.10;;;-4.00;1.40;;;-3.24;97.50;95886.73;641299;220;23477;-73
2021/04/16 04:50:52;;;;;;;10.45;8.60;;;-4.00;1.40;;;-3.21;96.18;95884.13;634792;220;31740;-71
2021/04/16 04:53:21;;;;;;;9.90;9.00;;;-4.00;1.40;;;-3.11;95.89;95885.25;634645;220;31781;-73
2021/04/16 04:55:50;;;;;;;8.60;7.80;;;-3.90;1.40;;;-3.11;95.95;95886.40;639566;221;23495;-72
2021/04/16 04:58:19;;;;;;;10.07;9.05;;;-3.90;1.40;;;-3.01;95.05;95884.28;634351;221;31714;-73
2021/04/16 05:00:48;;;;;;;10.68;9.57;;;-3.90;1.40;;;-2.92;94.82;95880.73;633465;221;32160;-72
2021/04/16 05:03:17;;;;;;;10.87;9.27;;;-3.80;1.40;;;-2.78;94.92;95882.05;639015;220;23482;-72
2021/04/16 05:05:46;;;;;;;11.93;9.32;;;-3.60;1.40;;;-2.56;93.87;95877.23;634476;220;31861;-72
2021/04/16 05:10:50;;;;;;;10.68;9.57;;;-3.20;1.40;;;-2.27;94.01;95887.95;646750;212;31715;-73
2021/04/16 05:13:19;;;;;;;9.67;8.67;;;-2.90;1.40;;;-2.07;92.33;95887.11;641429;220;23490;-72
2021/04/16 05:15:48;;;;;;;11.23;8.40;;;-2.80;1.40;;;-1.99;91.92;95888.00;632538;221;31928;-73
2021/04/16 05:18:17;;;;;;;10.17;9.27;;;-2.80;1.40;;;-2.00;91.79;95888.55;628463;224;26643;-72
2021/04/16 05:20:46;;;;;;;9.65;8.80;;;-2.80;1.40;;;-1.84;91.18;95885.22;623557;224;32048;-72
2021/04/16 05:23:15;;;;;;;9.23;8.20;;;-2.80;1.40;;;-1.60;88.81;95888.14;622458;224;31888;-72
2021/04/16 05:25:44;;;;;;;8.67;7.83;;;-2.70;1.40;;;-1.77;89.48;95893.56;627240;224;23521;-72
2021/04/16 05:28:13;;;;;;;9.00;8.30;;;-2.70;1.40;;;-1.79;90.79;95893.97;626884;225;24558;-72
2021/04/16 05:30:42;;;;;;;9.40;8.60;;;-2.80;1.40;;;-1.73;90.68;95888.75;630251;224;43222;-72
2021/04/16 05:35:51;;;;;;;10.05;9.05;;;-2.60;1.40;;;-1.46;89.71;95890.41;647280;212;31615;-73
2021/04/16 05:38:20;;;;;;;11.57;9.93;;;-2.50;1.40;;;-1.27;88.02;95894.06;623434;221;31979;-73
2021/04/16 05:40:49;;;;;;;9.90;8.97;;;-2.30;1.40;;;-1.26;89.17;95889.09;641679;221;24528;-73
2021/04/16 05:43:18;;;;;;;9.77;8.97;;;-2.20;1.40;;;-1.21;89.49;95894.95;643380;220;25573;-73
2021/04/16 05:45:47;;;;;;;10.20;8.33;;;-2.20;1.40;;;-1.08;88.88;95893.77;655084;217;24714;-72
2021/04/16 05:48:16;;;;;;;10.40;9.37;;;-2.10;1.40;;;-0.97;90.08;95893.06;669774;211;24417;-74
2021/04/16 05:50:46;;;;;;;11.77;10.30;;;-1.90;1.40;;;-0.84;89.78;95893.49;663832;211;31426;-73
2021/04/16 05:53:15;;;;;;;9.20;8.30;;;-1.80;1.40;;;-0.68;88.64;95899.57;655154;215;24575;-73
2021/04/16 05:55:44;;;;;;;9.47;8.67;;;-1.70;1.40;;;-0.44;86.73;95895.50;668426;211;24554;-73
2021/04/16 05:58:13;;;;;;;8.80;8.10;;;-1.50;1.40;;;-0.43;88.48;95891.44;668395;211;24461;-73
2021/04/16 06:00:42;;;;;;;11.00;9.90;;;-1.50;1.40;;;-0.32;88.22;95894.33;669104;211;24424;-73
2021/04/16 06:03:11;;;;;;;11.68;10.68;;;-1.40;1.40;;;-0.13;86.40;95892.83;664932;211;42044;-72
2021/04/16 06:05:40;;;;;;;10.37;9.47;;;-1.20;1.40;;;-0.02;86.06;95902.03;668317;211;23414;-73
2021/04/16 06:08:10;;;;;;;12.90;9.80;;;-1.10;1.40;;;0.15;86.04;95893.70;670393;211;27047;-74
2021/04/16 06:10:38;;;;;;;12.63;9.63;;;-0.90;1.40;;;0.29;85.95;95893.37;669073;211;24426;-74
2021/04/16 06:13:07;;;;;;;11.75;10.55;;;-0.80;1.40;;;0.44;86.11;95892.61;646009;216;31701;-72
2021/04/16 06:15:37;;;;;;;12.47;11.27;;;-0.60;1.40;;;0.50;86.54;95892.22;651899;216;30043;-72
2021/04/16 06:18:06;;;;;;;13.10;11.80;;;-0.50;1.40;;;0.67;86.54;95894.50;654331;216;24467;-72
2021/04/16 06:20:36;;;;;;;12.17;11.10;;;-0.40;1.40;;;0.81;86.35;95893.69;642055;221;24550;-73
2021/04/16 06:23:05;;;;;;;11.07;10.07;;;-0.30;1.40;;;0.99;85.59;95890.28;654681;215;25487;-73
2021/04/16 06:25:34;;;;;;;10.40;9.40;;;-0.10;1.40;;;1.09;86.58;95888.52;641018;221;24523;-72
2021/04/16 06:28:03;;;;;;;11.27;10.07;;;0.00;1.40;;;1.27;85.69;95888.23;639764;220;24510;-72
2021/04/16 06:30:32;;;;;;;11.50;10.40;;;0.10;1.40;;;1.27;85.64;95885.89;654546;216;24469;-73
2021/04/16 06:35:52;;;;;;;11.88;10.68;;;0.20;1.40;;;1.56;84.04;95888.30;645543;216;42279;-74
2021/04/16 06:38:21;;;;;;;10.77;9.87;;;0.30;1.40;;;1.70;83.66;95885.91;641211;221;23507;-73
2021/04/16 06:40:50;;;;;;;12.00;10.90;;;0.40;1.40;;;1.84;82.86;95882.55;634980;220;31818;-73
2021/04/16 06:43:20;;;;;;;11.83;10.83;;;0.40;1.40;;;1.77;82.87;95879.64;638617;221;23486;-71
2021/04/16 06:45:53;;;;;;;11.70;10.70;;;0.50;1.40;;;1.81;82.83;95876.45;634944;220;31818;-71
2021/04/16 06:48:22;;;;;;;11.23;10.03;;;0.50;1.40;;;1.77;83.61;95879.48;669343;211;23409;-71
2021/04/16 06:53:53;;;;;;;10.82;9.80;;;0.70;1.40;;;1.96;83.62;95881.25;617283;226;31978;-74
2021/04/16 06:56:34;;;;;;;11.82;10.63;;;0.80;1.40;;;2.11;82.85;95876.80;646362;212;31763;-73
2021/04/16 06:59:23;;;;;;;13.45;11.75;;;1.00;1.40;;;2.11;82.83;95875.35;635292;220;31805;-74
2021/04/16 07:02:02;;;;;;;11.75;10.65;;;1.10;1.40;;;2.49;81.85;95879.09;646937;212;31711;-72
2021/04/16 07:04:37;;;;;;;11.67;10.47;;;1.30;1.40;;;2.57;81.15;95877.72;641771;221;23464;-73
2021/04/16 07:07:29;;;;;;;13.07;9.93;;;1.40;1.40;;;2.48;81.03;95878.86;641340;220;25075;-72
2021/04/16 07:10:10;;;;;;;11.95;10.75;;;1.50;1.40;;;2.67;81.32;95876.62;647100;216;31605;-74
2021/04/16 07:12:39;;;;;;;11.10;9.70;;;1.60;1.40;;;2.37;82.72;95882.88;639669;221;23684;-73
2021/04/16 07:15:09;;;;;;;9.20;8.27;;;1.80;1.40;;;2.62;81.81;95876.43;640208;221;24603;-73
2021/04/16 07:17:39;;;;;;;10.43;9.50;;;2.00;1.40;;;2.88;80.77;95878.89;630275;220;24533;-73
2021/04/16 07:20:08;;;;;;;9.90;9.00;;;2.10;1.40;;;2.82;80.77;95877.84;654416;215;24510;-74
2021/04/16 07:25:20;;;;;;;11.05;9.90;;;2.10;1.40;;;3.50;78.19;95880.23;645813;216;31586;-74
2021/04/16 07:27:52;;;;;;;11.87;9.70;;;2.40;1.40;;;3.29;76.77;95880.86;640178;221;23481;-73
2021/04/16 07:30:26;;;;;;;10.47;9.47;;;2.30;1.40;;;3.68;76.30;95884.08;640649;220;24608;-73
2021/04/16 07:32:56;;;;;;;9.57;8.40;;;2.50;1.40;;;3.48;75.55;95887.23;640940;221;25009;-73
2021/04/16 07:35:51;;;;;;;9.82;8.82;;;2.50;1.40;;;3.28;77.13;95884.91;646468;212;31934;-73
2021/04/16 07:38:23;;;;;;;9.40;8.57;;;2.50;1.40;;;3.03;76.48;95882.78;636604;221;31859;-73
2021/04/16 07:40:52;;;;;;;9.60;8.80;;;2.40;1.40;;;3.47;76.09;95882.83;640874;221;24686;-73
2021/04/16 07:43:56;;;;;;;9.77;8.80;;;2.80;1.40;;;3.76;75.23;95887.37;636468;221;24492;-73
2021/04/16 07:46:36;;;;;;;9.00;8.20;;;2.80;1.40;;;3.83;72.56;95888.03;639782;221;24538;-72
2021/04/16 07:49:17;;;;;;;8.65;7.95;;;2.90;1.40;;;4.06;72.49;95883.11;635451;220;31731;-72
2021/04/16 07:51:46;;;;;;;9.32;8.45;;;2.90;1.40;;;4.42;71.68;95887.00;634808;221;31741;-72
2021/04/16 07:54:18;;;;;;;10.20;9.33;;;3.20;1.40;;;4.50;70.03;95888.97;641459;221;23446;-72
2021/04/16 07:56:47;;;;;;;9.27;8.37;;;3.30;1.40;;;4.53;70.76;95889.70;639684;220;24512;-72
2021/04/16 07:59:16;;;;;;;8.97;8.17;;;3.20;1.40;;;4.58;69.97;95886.41;640575;221;24552;-73
2021/04/16 08:01:45;;;;;;;8.47;7.67;;;3.40;1.40;;;4.60;69.66;95886.69;639453;220;24798;-72
2021/04/16 08:04:34;;;;;;;7.73;7.10;;;3.50;1.40;;;5.24;69.05;95886.41;639667;221;26664;-72
2021/04/16 08:07:15;;;;;;;7.43;6.83;;;3.90;1.40;;;4.91;68.78;95891.88;640350;220;24540;-73
2021/04/16 08:09:44;;;;;;;7.63;6.93;;;3.90;1.40;;;5.20;68.03;95887.80;640813;221;24512;-74
2021/04/16 08:12:15;;;;;;;6.97;6.40;;;4.10;1.40;;;5.74;66.67;95889.23;640801;221;24496;-73
2021/04/16 08:14:44;;;;;;;8.87;8.07;;;4.40;1.40;;;5.69;64.68;95892.75;638745;221;24737;-73
2021/04/16 08:17:23;;;;;;;8.10;7.20;;;4.40;1.40;;;5.89;64.99;95887.64;631840;221;24527;-73
2021/04/16 08:19:52;;;;;;;6.80;6.00;;;4.80;1.40;;;6.49;64.14;95886.11;628038;225;24588;-73
2021/04/16 08:22:27;;;;;;;8.37;7.67;;;5.10;1.40;;;5.96;63.08;95885.68;628755;225;24545;-72
2021/04/16 08:24:59;;;;;;;7.90;7.10;;;4.70;1.40;;;5.86;64.02;95889.57;641316;220;24523;-71
2021/04/16 08:27:52;;;;;;;9.47;7.50;;;4.50;1.40;;;6.05;63.30;95891.35;641616;220;24519;-73
2021/04/16 08:30:52;;;;;;;8.13;7.32;;;4.50;1.40;;;6.04;63.18;95894.69;646417;216;31794;-73
2021/04/16 08:36:04;;;;;;;8.00;7.12;;;4.30;1.40;;;6.08;60.86;95887.70;647092;212;31579;-72
2021/04/16 08:38:31;;;;;;;7.20;6.67;;;4.70;1.40;;;6.08;61.68;95890.72;640557;220;23479;-73
2021/04/16 08:41:00;;;;;;;7.05;6.45;;;4.40;1.40;;;5.83;61.16;95890.31;634607;220;32399;-73
2021/04/16 08:43:35;;;;;;;7.70;7.00;;;4.50;1.40;;;6.64;62.46;95890.67;640317;221;23483;-72
2021/04/16 08:46:19;;;;;;;6.35;5.75;;;5.50;1.40;;;6.25;57.81;95884.33;634746;221;31805;-72
2021/04/16 08:48:52;;;;;;;7.00;6.40;;;5.30;1.40;;;6.74;61.05;95880.90;638097;221;23892;-73
2021/04/16 08:51:17;;;;;;;6.00;5.50;;;5.70;1.40;;;7.39;57.40;95876.59;639718;221;24480;-73
2021/04/16 08:53:46;;;;;;;5.43;4.97;;;6.30;1.40;;;7.42;55.05;95874.85;639200;221;24617;-73
2021/04/16 08:56:17;;;;;;;5.57;5.07;;;6.20;1.40;;;7.33;54.59;95872.17;642924;220;24496;-73
2021/04/16 09:01:21;;;;;;;5.80;5.30;;;6.40;1.40;;;9.31;52.40;95865.11;645455;216;31592;-73
2021/04/16 09:03:52;;;;;;;5.70;5.20;;;10.30;1.40;;;10.89;46.92;95866.09;639785;220;23474;-74
2021/04/16 09:06:45;;;;;;;5.67;5.27;;;12.30;1.40;;;12.74;44.13;95860.53;640213;220;24549;-73
2021/04/16 09:09:14;;;;;;;4.80;4.40;;;12.70;1.40;;;14.17;40.17;95866.99;635127;221;31886;-73
2021/04/16 09:11:51;;;;;;;5.00;4.70;;;14.30;1.40;;;13.55;38.26;95864.96;638603;221;23484;-72
2021/04/16 09:17:10;;;;;;;4.80;4.40;;;14.40;1.40;;;16.76;34.55;95859.45;637512;216;42387;-73
2021/04/16 09:19:40;;;;;;;5.50;5.10;;;15.70;1.40;;;19.14;37.16;95861.96;629266;224;24187;-72
2021/04/16 09:22:17;;;;;;;5.53;5.13;;;16.90;1.40;;;18.17;35.26;95858.34;634928;224;23573;-72
2021/04/16 09:24:48;;;;;;;5.10;4.70;;;16.10;1.40;;;20.38;32.55;95860.25;624790;224;31964;-72
2021/04/16 09:27:32;;;;;;;5.70;5.20;;;16.50;1.40;;;20.79;32.18;95861.06;656546;215;22981;-74
2021/04/16 09:30:31;;;;;;;5.07;4.57;;;15.30;1.40;;;17.06;35.31;95864.36;646988;216;31578;-73
2021/04/16 09:38:27;;;;;;;5.30;4.90;;;7.10;1.40;;;9.84;44.22;95869.13;645409;216;32125;-72
2021/04/16 09:41:13;;;;;;;5.20;4.80;;;6.30;1.40;;;10.92;44.82;95868.48;635282;220;32612;-72
2021/04/16 09:43:42;;;;;;;5.03;4.62;;;6.90;1.40;;;10.59;42.84;95864.70;634956;220;31766;-71
2021/04/16 09:46:38;;;;;;;5.20;4.80;;;6.90;1.40;;;9.36;43.91;95866.36;634652;221;31794;-71
2021/04/16 09:49:35;;;;;;;5.20;4.80;;;7.60;1.40;;;12.49;41.26;95862.02;646768;212;42211;-71
2021/04/16 09:52:22;;;;;;;5.07;4.67;;;11.60;1.40;;;12.93;38.93;95858.81;639493;221;24542;-71
2021/04/16 09:54:51;;;;;;;4.63;4.27;;;10.70;1.40;;;14.12;37.89;95861.39;640455;221;25663;-72
2021/04/16 09:57:23;;;;;;;4.30;3.90;;;11.00;1.40;;;13.77;37.35;95855.35;634666;221;31734;-71
2021/04/16 09:59:54;;;;;;;4.80;4.40;;;9.40;1.40;;;12.58;40.50;95857.84;654514;216;24508;-72
2021/04/16 10:02:38;;;;;;;4.70;4.30;;;9.00;1.40;;;11.93;41.86;95858.14;663820;211;31404;-73
2021/04/16 10:07:52;;;;;;;4.60;4.20;;;14.70;1.40;;;16.14;36.35;95849.15;645603;216;31613;-72
2021/04/16 10:13:01;;;;;;;4.90;4.60;;;14.00;1.40;;;16.42;34.08;95849.03;646549;212;31607;-72
2021/04/16 10:15:30;;;;;;;4.67;4.37;;;14.30;1.40;;;20.35;31.51;95841.00;641784;221;26800;-72
2021/04/16 10:18:00;;;;;;;4.60;4.30;;;17.40;1.40;;;20.65;29.01;95844.25;655484;215;23517;-72
2021/04/16 10:20:29;;;;;;;3.53;3.33;;;16.70;1.40;;;18.66;30.09;95844.55;669252;211;26875;-73
2021/04/16 10:22:59;;;;;;;5.03;4.13;;;16.20;1.40;;;-143.44;100.00;122422.95;668084;211;25526;-72
2021/04/16 10:32:30;;;;;;;4.30;3.90;;;15.50;1.40;;;;;;645859;216;31554;-72
2021/04/16 10:37:25;;;;;;;4.80;4.40;;;16.50;1.40;;;22.28;26.20;95834.27;646497;212;31766;-71
2021/04/16 10:42:59;;;;;;;4.67;4.37;;;16.50;1.40;;;22.59;28.56;95828.02;671346;211;23448;-72
2021/04/16 10:51:21;;;;;;;4.70;4.40;;;16.60;1.40;;;18.89;30.70;95828.08;640172;220;22655;-72
2021/04/16 10:54:08;;;;;;;4.60;4.30;;;13.80;1.40;;;20.05;28.66;95826.84;653159;216;24949;-73
2021/04/16 12:38:34;;;;;;;5.10;4.70;;;11.80;1.40;;;18.27;30.43;95797.69;646624;216;31585;-74
2021/04/16 12:40:58;;;;;;;4.40;4.10;;;14.70;1.40;;;19.83;28.32;95796.44;635814;221;31873;-71
2021/04/16 12:43:27;;;;;;;4.80;4.50;;;15.20;1.40;;;19.62;27.55;95793.69;640727;221;23478;-72
2021/04/16 12:45:56;;;;;;;4.90;4.50;;;15.90;1.40;;;19.62;27.19;95790.92;634769;221;31748;-73
2021/04/16 12:48:25;;;;;;;5.25;4.75;;;13.10;1.40;;;18.44;28.69;95786.55;634178;221;31824;-72
2021/04/16 12:50:54;;;;;;;5.27;4.87;;;12.10;1.40;;;18.15;28.52;95786.58;641270;221;22576;-73
2021/04/16 12:53:23;;;;;;;5.60;5.20;;;12.40;1.40;;;14.67;33.81;95790.14;639736;221;23529;-72
2021/04/16 12:55:52;;;;;;;5.30;4.90;;;11.00;1.40;;;17.24;32.02;95787.30;640080;220;23553;-72
2021/04/16 12:58:21;;;;;;;5.67;5.13;;;13.60;1.40;;;19.45;28.46;95782.12;639809;221;24686;-72
2021/04/16 13:00:51;;;;;;;5.87;4.80;;;15.60;1.40;;;21.48;26.05;95777.08;639752;221;23559;-73
2021/04/16 13:03:20;;;;;;;5.03;4.73;;;14.60;1.40;;;17.49;27.28;95783.77;639432;220;25735;-73
2021/04/16 13:05:49;;;;;;;4.68;4.30;;;12.70;1.40;;;19.14;28.85;95785.27;634178;221;31732;-71
2021/04/16 13:08:18;;;;;;;5.22;4.60;;;14.40;1.40;;;21.41;25.49;95779.44;634007;221;31894;-71
2021/04/16 13:10:47;;;;;;;6.70;6.20;;;16.20;1.40;;;20.69;27.00;95783.11;640344;220;22500;-73
2021/04/16 13:13:16;;;;;;;5.93;5.43;;;16.10;1.40;;;23.20;27.02;95786.45;639850;221;23607;-73
2021/04/16 13:15:47;;;;;;;6.03;5.53;;;17.60;1.40;;;21.76;25.68;95778.71;637840;221;24571;-72
2021/04/16 13:18:32;;;;;;;5.80;5.33;;;16.50;1.40;;;20.29;28.34;95774.23;628386;226;25899;-72
2021/04/16 13:21:01;;;;;;;6.70;6.20;;;13.40;1.40;;;14.26;33.63;95788.63;627559;226;25518;-73
2021/04/16 13:23:30;;;;;;;9.57;7.00;;;10.40;1.40;;;12.81;36.71;95783.70;632306;222;24847;-74
2021/04/16 13:26:03;;;;;;;7.70;7.00;;;10.00;1.40;;;13.11;36.71;95784.19;635362;221;31723;-72
2021/04/16 13:28:29;;;;;;;6.00;5.50;;;10.30;1.40;;;14.58;36.56;95782.39;650060;215;31523;-74
2021/04/16 13:30:58;;;;;;;6.43;5.93;;;11.80;1.40;;;17.16;32.55;95772.33;639219;216;31541;-72
2021/04/16 13:35:54;;;;;;;5.57;5.18;;;13.50;1.40;;;17.86;30.14;95772.44;631314;221;43601;-73